sensor_id;sensor_type;location;lat;lon;timestamp;P1;durP1;ratioP1;P2;durP2;ratioP2
48621;SDS011;34421;48.944;9.460;2022-12-07T00:02:21;5.35;;;2.80;;
48621;SDS011;34421;48.944;9.460;2022-12-07T00:04:48;5.22;;;2.25;;
48621;SDS011;34421;48.944;9.460;2022-12-07T00:07:14;3.95;;;2.00;;
48621;SDS011;34421;48.944;9.460;2022-12-07T00:09:39;4.72;;;2.53;;
48621;SDS011;34421;48.944;9.460;2022-12-07T00:12:06;5.13;;;2.70;;
48621;SDS011;34421;48.944;9.460;2022-12-07T00:14:32;4.88;;;2.67;;
48621;SDS011;34421;48.944;9.460;2022-12-07T00:16:57;4.75;;;2.33;;
48621;SDS011;34421;48.944;9.460;2022-12-07T00:19:22;4.80;;;2.58;;
48621;SDS011;34421;48.944;9.460;2022-12-07T00:21:48;5.07;;;2.53;;
48621;SDS011;34421;48.944;9.460;2022-12-07T00:24:13;5.45;;;3.00;;
48621;SDS011;34421;48.944;9.460;2022-12-07T00:26:39;5.13;;;2.72;;
48621;SDS011;34421;48.944;9.460;2022-12-07T00:29:19;5.38;;;2.72;;
48621;SDS011;34421;48.944;9.460;2022-12-07T00:31:46;6.65;;;2.85;;
48621;SDS011;34421;48.944;9.460;2022-12-07T00:34:13;4.22;;;2.63;;
48621;SDS011;34421;48.944;9.460;2022-12-07T00:36:40;3.90;;;2.22;;
48621;SDS011;34421;48.944;9.460;2022-12-07T00:39:05;5.38;;;2.72;;
48621;SDS011;34421;48.944;9.460;2022-12-07T00:41:30;5.93;;;2.53;;
48621;SDS011;34421;48.944;9.460;2022-12-07T00:43:56;5.07;;;2.40;;
48621;SDS011;34421;48.944;9.460;2022-12-07T00:46:22;4.63;;;2.83;;
48621;SDS011;34421;48.944;9.460;2022-12-07T00:48:50;6.25;;;2.40;;
48621;SDS011;34421;48.944;9.460;2022-12-07T00:51:17;5.63;;;2.97;;
48621;SDS011;34421;48.944;9.460;2022-12-07T00:53:44;4.22;;;2.35;;
48621;SDS011;34421;48.944;9.460;2022-12-07T00:56:14;4.75;;;2.58;;
48621;SDS011;34421;48.944;9.460;2022-12-07T00:58:41;6.20;;;3.30;;
48621;SDS011;34421;48.944;9.460;2022-12-07T01:01:07;5.00;;;2.60;;
48621;SDS011;34421;48.944;9.460;2022-12-07T01:03:34;4.60;;;2.45;;
48621;SDS011;34421;48.944;9.460;2022-12-07T01:06:00;4.82;;;2.63;;
48621;SDS011;34421;48.944;9.460;2022-12-07T01:08:26;4.68;;;2.85;;
48621;SDS011;34421;48.944;9.460;2022-12-07T01:10:59;4.53;;;2.35;;
48621;SDS011;34421;48.944;9.460;2022-12-07T01:13:25;3.92;;;2.42;;
48621;SDS011;34421;48.944;9.460;2022-12-07T01:15:50;4.05;;;2.22;;
48621;SDS011;34421;48.944;9.460;2022-12-07T01:18:15;4.68;;;2.60;;
48621;SDS011;34421;48.944;9.460;2022-12-07T01:20:41;5.38;;;2.72;;
48621;SDS011;34421;48.944;9.460;2022-12-07T01:23:06;4.20;;;2.33;;
48621;SDS011;34421;48.944;9.460;2022-12-07T01:25:31;3.90;;;2.30;;
48621;SDS011;34421;48.944;9.460;2022-12-07T01:27:57;6.53;;;3.45;;
48621;SDS011;34421;48.944;9.460;2022-12-07T01:30:22;4.50;;;2.58;;
48621;SDS011;34421;48.944;9.460;2022-12-07T01:32:47;5.57;;;3.03;;
48621;SDS011;34421;48.944;9.460;2022-12-07T01:35:13;5.38;;;2.60;;
48621;SDS011;34421;48.944;9.460;2022-12-07T01:37:39;5.68;;;2.67;;
48621;SDS011;34421;48.944;9.460;2022-12-07T01:40:05;4.65;;;2.40;;
48621;SDS011;34421;48.944;9.460;2022-12-07T01:42:32;6.40;;;3.08;;
48621;SDS011;34421;48.944;9.460;2022-12-07T01:47:42;3.22;;;2.08;;
48621;SDS011;34421;48.944;9.460;2022-12-07T01:50:11;5.18;;;2.85;;
48621;SDS011;34421;48.944;9.460;2022-12-07T01:52:37;4.53;;;2.40;;
48621;SDS011;34421;48.944;9.460;2022-12-07T01:55:06;4.82;;;2.55;;
48621;SDS011;34421;48.944;9.460;2022-12-07T01:57:34;6.53;;;3.42;;
48621;SDS011;34421;48.944;9.460;2022-12-07T02:00:04;5.65;;;2.80;;
48621;SDS011;34421;48.944;9.460;2022-12-07T02:02:36;5.25;;;2.65;;
48621;SDS011;34421;48.944;9.460;2022-12-07T02:05:06;4.72;;;2.42;;
48621;SDS011;34421;48.944;9.460;2022-12-07T02:07:32;4.72;;;2.67;;
48621;SDS011;34421;48.944;9.460;2022-12-07T02:10:16;5.07;;;2.20;;
48621;SDS011;34421;48.944;9.460;2022-12-07T02:12:41;5.20;;;3.33;;
48621;SDS011;34421;48.944;9.460;2022-12-07T02:15:09;4.57;;;2.47;;
48621;SDS011;34421;48.944;9.460;2022-12-07T02:17:38;5.03;;;3.00;;
48621;SDS011;34421;48.944;9.460;2022-12-07T02:20:17;4.82;;;2.50;;
48621;SDS011;34421;48.944;9.460;2022-12-07T02:23:13;4.65;;;2.10;;
48621;SDS011;34421;48.944;9.460;2022-12-07T02:29:14;5.03;;;2.47;;
48621;SDS011;34421;48.944;9.460;2022-12-07T02:32:03;5.30;;;2.60;;
48621;SDS011;34421;48.944;9.460;2022-12-07T02:34:42;4.07;;;2.20;;
48621;SDS011;34421;48.944;9.460;2022-12-07T02:40:23;3.85;;;1.98;;
48621;SDS011;34421;48.944;9.460;2022-12-07T02:43:20;5.00;;;2.60;;
48621;SDS011;34421;48.944;9.460;2022-12-07T02:45:51;4.65;;;2.47;;
48621;SDS011;34421;48.944;9.460;2022-12-07T02:48:19;3.72;;;1.95;;
48621;SDS011;34421;48.944;9.460;2022-12-07T02:50:49;4.82;;;2.55;;
48621;SDS011;34421;48.944;9.460;2022-12-07T03:13:33;5.57;;;2.38;;
48621;SDS011;34421;48.944;9.460;2022-12-07T03:18:09;4.05;;;2.10;;
48621;SDS011;34421;48.944;9.460;2022-12-07T03:20:38;3.03;;;1.58;;
48621;SDS011;34421;48.944;9.460;2022-12-07T03:23:06;3.88;;;2.05;;
48621;SDS011;34421;48.944;9.460;2022-12-07T03:25:40;5.63;;;1.92;;
48621;SDS011;34421;48.944;9.460;2022-12-07T03:28:09;5.63;;;2.60;;
48621;SDS011;34421;48.944;9.460;2022-12-07T03:30:42;6.32;;;2.42;;
48621;SDS011;34421;48.944;9.460;2022-12-07T03:35:40;4.80;;;2.23;;
48621;SDS011;34421;48.944;9.460;2022-12-07T03:38:17;4.60;;;2.33;;
48621;SDS011;34421;48.944;9.460;2022-12-07T03:40:51;5.38;;;2.60;;
48621;SDS011;34421;48.944;9.460;2022-12-07T03:43:24;5.20;;;2.53;;
48621;SDS011;34421;48.944;9.460;2022-12-07T03:49:11;4.82;;;2.17;;
48621;SDS011;34421;48.944;9.460;2022-12-07T03:51:50;4.50;;;2.33;;
48621;SDS011;34421;48.944;9.460;2022-12-07T03:54:24;4.38;;;2.20;;
48621;SDS011;34421;48.944;9.460;2022-12-07T03:56:54;4.78;;;2.67;;
48621;SDS011;34421;48.944;9.460;2022-12-07T03:59:20;5.18;;;2.63;;
48621;SDS011;34421;48.944;9.460;2022-12-07T04:01:58;4.85;;;2.78;;
48621;SDS011;34421;48.944;9.460;2022-12-07T04:04:27;4.95;;;2.20;;
48621;SDS011;34421;48.944;9.460;2022-12-07T04:06:53;4.20;;;2.03;;
48621;SDS011;34421;48.944;9.460;2022-12-07T04:09:18;4.55;;;2.60;;
48621;SDS011;34421;48.944;9.460;2022-12-07T04:11:44;5.05;;;2.78;;
48621;SDS011;34421;48.944;9.460;2022-12-07T04:14:09;4.18;;;2.47;;
48621;SDS011;34421;48.944;9.460;2022-12-07T04:16:44;5.32;;;2.42;;
48621;SDS011;34421;48.944;9.460;2022-12-07T04:19:12;4.45;;;2.35;;
48621;SDS011;34421;48.944;9.460;2022-12-07T04:21:38;4.32;;;2.20;;
48621;SDS011;34421;48.944;9.460;2022-12-07T04:24:04;4.75;;;2.33;;
48621;SDS011;34421;48.944;9.460;2022-12-07T04:26:29;5.03;;;2.80;;
48621;SDS011;34421;48.944;9.460;2022-12-07T04:28:55;3.92;;;2.22;;
48621;SDS011;34421;48.944;9.460;2022-12-07T04:31:20;3.80;;;1.90;;
48621;SDS011;34421;48.944;9.460;2022-12-07T04:33:46;4.40;;;2.63;;
48621;SDS011;34421;48.944;9.460;2022-12-07T04:36:11;4.82;;;2.63;;
48621;SDS011;34421;48.944;9.460;2022-12-07T04:38:36;5.15;;;2.47;;
48621;SDS011;34421;48.944;9.460;2022-12-07T04:41:08;5.45;;;2.40;;
48621;SDS011;34421;48.944;9.460;2022-12-07T04:43:34;4.75;;;2.22;;
48621;SDS011;34421;48.944;9.460;2022-12-07T04:46:00;3.60;;;2.00;;
48621;SDS011;34421;48.944;9.460;2022-12-07T04:48:25;6.07;;;2.97;;
48621;SDS011;34421;48.944;9.460;2022-12-07T04:50:51;5.75;;;3.15;;
48621;SDS011;34421;48.944;9.460;2022-12-07T04:53:16;4.47;;;2.72;;
48621;SDS011;34421;48.944;9.460;2022-12-07T04:55:41;4.47;;;2.38;;
48621;SDS011;34421;48.944;9.460;2022-12-07T04:58:07;4.13;;;2.17;;
48621;SDS011;34421;48.944;9.460;2022-12-07T05:00:32;5.40;;;2.65;;
48621;SDS011;34421;48.944;9.460;2022-12-07T05:02:57;6.95;;;2.90;;
48621;SDS011;34421;48.944;9.460;2022-12-07T05:05:23;4.05;;;2.38;;
48621;SDS011;34421;48.944;9.460;2022-12-07T05:07:49;4.32;;;2.38;;
48621;SDS011;34421;48.944;9.460;2022-12-07T05:10:15;5.80;;;2.50;;
48621;SDS011;34421;48.944;9.460;2022-12-07T05:12:40;5.65;;;2.92;;
48621;SDS011;34421;48.944;9.460;2022-12-07T05:15:05;5.38;;;2.40;;
48621;SDS011;34421;48.944;9.460;2022-12-07T05:17:31;4.53;;;2.67;;
48621;SDS011;34421;48.944;9.460;2022-12-07T05:19:56;4.88;;;2.65;;
48621;SDS011;34421;48.944;9.460;2022-12-07T05:22:21;4.90;;;2.78;;
48621;SDS011;34421;48.944;9.460;2022-12-07T05:24:47;6.32;;;3.13;;
48621;SDS011;34421;48.944;9.460;2022-12-07T05:27:12;4.85;;;2.78;;
48621;SDS011;34421;48.944;9.460;2022-12-07T05:29:38;4.50;;;2.30;;
48621;SDS011;34421;48.944;9.460;2022-12-07T05:32:03;5.97;;;2.67;;
48621;SDS011;34421;48.944;9.460;2022-12-07T05:34:28;5.72;;;3.45;;
48621;SDS011;34421;48.944;9.460;2022-12-07T05:36:54;6.00;;;3.60;;
48621;SDS011;34421;48.944;9.460;2022-12-07T05:39:19;6.07;;;2.65;;
48621;SDS011;34421;48.944;9.460;2022-12-07T05:41:44;5.53;;;2.63;;
48621;SDS011;34421;48.944;9.460;2022-12-07T05:44:28;5.47;;;3.33;;
48621;SDS011;34421;48.944;9.460;2022-12-07T05:46:53;5.22;;;2.50;;
48621;SDS011;34421;48.944;9.460;2022-12-07T05:49:19;4.22;;;2.40;;
48621;SDS011;34421;48.944;9.460;2022-12-07T05:51:44;5.78;;;2.55;;
48621;SDS011;34421;48.944;9.460;2022-12-07T05:54:09;6.53;;;2.92;;
48621;SDS011;34421;48.944;9.460;2022-12-07T05:56:35;6.03;;;2.40;;
48621;SDS011;34421;48.944;9.460;2022-12-07T05:59:00;4.85;;;2.65;;
48621;SDS011;34421;48.944;9.460;2022-12-07T06:01:44;4.57;;;2.58;;
48621;SDS011;34421;48.944;9.460;2022-12-07T06:04:09;5.13;;;2.95;;
48621;SDS011;34421;48.944;9.460;2022-12-07T06:06:35;4.90;;;2.47;;
48621;SDS011;34421;48.944;9.460;2022-12-07T06:09:00;5.22;;;2.50;;
48621;SDS011;34421;48.944;9.460;2022-12-07T06:11:25;4.25;;;2.50;;
48621;SDS011;34421;48.944;9.460;2022-12-07T06:14:09;4.43;;;2.33;;
48621;SDS011;34421;48.944;9.460;2022-12-07T06:16:35;4.18;;;2.40;;
48621;SDS011;34421;48.944;9.460;2022-12-07T06:19:00;4.93;;;2.90;;
48621;SDS011;34421;48.944;9.460;2022-12-07T06:21:25;5.47;;;2.60;;
48621;SDS011;34421;48.944;9.460;2022-12-07T06:23:51;4.63;;;2.25;;
48621;SDS011;34421;48.944;9.460;2022-12-07T06:26:17;13.73;;;2.47;;
48621;SDS011;34421;48.944;9.460;2022-12-07T06:28:42;5.38;;;2.60;;
48621;SDS011;34421;48.944;9.460;2022-12-07T06:31:07;4.63;;;2.55;;
48621;SDS011;34421;48.944;9.460;2022-12-07T06:33:33;3.97;;;2.38;;
48621;SDS011;34421;48.944;9.460;2022-12-07T06:35:58;4.00;;;2.03;;
48621;SDS011;34421;48.944;9.460;2022-12-07T06:38:24;4.53;;;2.63;;
48621;SDS011;34421;48.944;9.460;2022-12-07T06:40:49;5.05;;;2.35;;
48621;SDS011;34421;48.944;9.460;2022-12-07T06:43:15;5.28;;;2.58;;
48621;SDS011;34421;48.944;9.460;2022-12-07T06:45:40;5.30;;;2.17;;
48621;SDS011;34421;48.944;9.460;2022-12-07T06:48:06;3.85;;;2.38;;
48621;SDS011;34421;48.944;9.460;2022-12-07T06:50:32;4.32;;;2.15;;
48621;SDS011;34421;48.944;9.460;2022-12-07T06:52:57;3.15;;;1.73;;
48621;SDS011;34421;48.944;9.460;2022-12-07T06:55:22;4.85;;;2.20;;
48621;SDS011;34421;48.944;9.460;2022-12-07T06:57:48;4.25;;;2.25;;
48621;SDS011;34421;48.944;9.460;2022-12-07T07:00:13;5.25;;;2.58;;
48621;SDS011;34421;48.944;9.460;2022-12-07T07:02:39;4.30;;;2.45;;
48621;SDS011;34421;48.944;9.460;2022-12-07T07:05:04;5.97;;;3.15;;
48621;SDS011;34421;48.944;9.460;2022-12-07T07:07:29;5.20;;;2.50;;
48621;SDS011;34421;48.944;9.460;2022-12-07T07:09:55;4.40;;;2.45;;
48621;SDS011;34421;48.944;9.460;2022-12-07T07:12:20;6.50;;;2.83;;
48621;SDS011;34421;48.944;9.460;2022-12-07T07:14:46;5.90;;;2.80;;
48621;SDS011;34421;48.944;9.460;2022-12-07T07:17:11;5.72;;;2.83;;
48621;SDS011;34421;48.944;9.460;2022-12-07T07:19:37;6.25;;;2.97;;
48621;SDS011;34421;48.944;9.460;2022-12-07T07:22:03;4.38;;;1.90;;
48621;SDS011;34421;48.944;9.460;2022-12-07T07:24:29;4.78;;;2.55;;
48621;SDS011;34421;48.944;9.460;2022-12-07T07:26:54;4.20;;;2.03;;
48621;SDS011;34421;48.944;9.460;2022-12-07T07:29:19;4.97;;;2.38;;
48621;SDS011;34421;48.944;9.460;2022-12-07T07:31:45;4.57;;;2.40;;
48621;SDS011;34421;48.944;9.460;2022-12-07T07:34:10;6.13;;;2.67;;
48621;SDS011;34421;48.944;9.460;2022-12-07T07:36:35;5.70;;;2.72;;
48621;SDS011;34421;48.944;9.460;2022-12-07T07:39:01;4.18;;;2.35;;
48621;SDS011;34421;48.944;9.460;2022-12-07T07:41:26;4.35;;;2.35;;
48621;SDS011;34421;48.944;9.460;2022-12-07T07:43:51;4.75;;;2.58;;
48621;SDS011;34421;48.944;9.460;2022-12-07T07:46:17;5.10;;;2.60;;
48621;SDS011;34421;48.944;9.460;2022-12-07T07:48:42;5.47;;;2.38;;
48621;SDS011;34421;48.944;9.460;2022-12-07T07:51:08;5.13;;;2.50;;
48621;SDS011;34421;48.944;9.460;2022-12-07T07:53:33;5.30;;;2.30;;
48621;SDS011;34421;48.944;9.460;2022-12-07T07:55:59;5.85;;;2.88;;
48621;SDS011;34421;48.944;9.460;2022-12-07T07:58:24;5.00;;;2.95;;
48621;SDS011;34421;48.944;9.460;2022-12-07T08:00:50;5.55;;;2.92;;
48621;SDS011;34421;48.944;9.460;2022-12-07T08:03:15;4.68;;;2.25;;
48621;SDS011;34421;48.944;9.460;2022-12-07T08:05:41;4.35;;;2.53;;
48621;SDS011;34421;48.944;9.460;2022-12-07T08:08:06;3.72;;;2.33;;
48621;SDS011;34421;48.944;9.460;2022-12-07T08:10:31;4.57;;;2.47;;
48621;SDS011;34421;48.944;9.460;2022-12-07T08:12:57;5.03;;;2.28;;
48621;SDS011;34421;48.944;9.460;2022-12-07T08:15:39;5.20;;;2.55;;
48621;SDS011;34421;48.944;9.460;2022-12-07T08:18:06;4.95;;;2.55;;
48621;SDS011;34421;48.944;9.460;2022-12-07T08:20:33;5.18;;;2.75;;
48621;SDS011;34421;48.944;9.460;2022-12-07T08:22:59;5.10;;;2.55;;
48621;SDS011;34421;48.944;9.460;2022-12-07T08:25:25;6.38;;;3.22;;
48621;SDS011;34421;48.944;9.460;2022-12-07T08:27:51;5.85;;;2.80;;
48621;SDS011;34421;48.944;9.460;2022-12-07T08:30:17;5.55;;;2.97;;
48621;SDS011;34421;48.944;9.460;2022-12-07T08:32:44;6.40;;;3.22;;
48621;SDS011;34421;48.944;9.460;2022-12-07T08:35:10;4.30;;;2.15;;
48621;SDS011;34421;48.944;9.460;2022-12-07T08:37:35;6.43;;;2.90;;
48621;SDS011;34421;48.944;9.460;2022-12-07T08:40:01;5.30;;;3.00;;
48621;SDS011;34421;48.944;9.460;2022-12-07T08:42:28;5.95;;;2.65;;
48621;SDS011;34421;48.944;9.460;2022-12-07T08:44:55;4.63;;;2.30;;
48621;SDS011;34421;48.944;9.460;2022-12-07T08:47:21;4.65;;;2.40;;
48621;SDS011;34421;48.944;9.460;2022-12-07T08:49:48;4.55;;;2.15;;
48621;SDS011;34421;48.944;9.460;2022-12-07T08:52:15;4.50;;;2.13;;
48621;SDS011;34421;48.944;9.460;2022-12-07T08:54:41;4.20;;;2.10;;
48621;SDS011;34421;48.944;9.460;2022-12-07T08:57:07;4.18;;;2.30;;
48621;SDS011;34421;48.944;9.460;2022-12-07T08:59:34;4.70;;;2.05;;
48621;SDS011;34421;48.944;9.460;2022-12-07T09:02:00;5.25;;;2.83;;
48621;SDS011;34421;48.944;9.460;2022-12-07T09:04:26;5.22;;;2.63;;
48621;SDS011;34421;48.944;9.460;2022-12-07T09:06:51;4.45;;;2.30;;
48621;SDS011;34421;48.944;9.460;2022-12-07T09:09:17;6.18;;;3.28;;
48621;SDS011;34421;48.944;9.460;2022-12-07T09:11:42;5.07;;;2.58;;
48621;SDS011;34421;48.944;9.460;2022-12-07T09:14:09;4.20;;;2.13;;
48621;SDS011;34421;48.944;9.460;2022-12-07T09:16:34;3.72;;;2.28;;
48621;SDS011;34421;48.944;9.460;2022-12-07T09:19:00;4.10;;;2.22;;
48621;SDS011;34421;48.944;9.460;2022-12-07T09:21:25;4.95;;;2.55;;
48621;SDS011;34421;48.944;9.460;2022-12-07T09:23:50;4.60;;;2.55;;
48621;SDS011;34421;48.944;9.460;2022-12-07T09:26:16;4.82;;;2.25;;
48621;SDS011;34421;48.944;9.460;2022-12-07T09:28:41;4.80;;;2.45;;
48621;SDS011;34421;48.944;9.460;2022-12-07T09:31:06;4.95;;;2.40;;
48621;SDS011;34421;48.944;9.460;2022-12-07T09:33:32;6.13;;;2.70;;
48621;SDS011;34421;48.944;9.460;2022-12-07T09:35:57;5.13;;;2.40;;
48621;SDS011;34421;48.944;9.460;2022-12-07T09:38:23;8.25;;;2.75;;
48621;SDS011;34421;48.944;9.460;2022-12-07T09:40:49;5.03;;;2.25;;
48621;SDS011;34421;48.944;9.460;2022-12-07T09:43:15;4.30;;;2.42;;
48621;SDS011;34421;48.944;9.460;2022-12-07T09:45:43;5.70;;;2.60;;
48621;SDS011;34421;48.944;9.460;2022-12-07T09:48:14;5.03;;;2.55;;
48621;SDS011;34421;48.944;9.460;2022-12-07T09:50:43;4.53;;;2.25;;
48621;SDS011;34421;48.944;9.460;2022-12-07T09:53:32;4.85;;;2.00;;
48621;SDS011;34421;48.944;9.460;2022-12-07T09:56:04;5.53;;;3.08;;
48621;SDS011;34421;48.944;9.460;2022-12-07T09:58:30;4.22;;;2.10;;
48621;SDS011;34421;48.944;9.460;2022-12-07T10:03:32;5.88;;;2.58;;
48621;SDS011;34421;48.944;9.460;2022-12-07T10:05:58;4.05;;;2.05;;
48621;SDS011;34421;48.944;9.460;2022-12-07T10:08:24;3.95;;;2.30;;
48621;SDS011;34421;48.944;9.460;2022-12-07T10:10:51;4.80;;;2.35;;
48621;SDS011;34421;48.944;9.460;2022-12-07T10:13:19;5.28;;;2.55;;
48621;SDS011;34421;48.944;9.460;2022-12-07T10:26:31;5.15;;;2.38;;
48621;SDS011;34421;48.944;9.460;2022-12-07T10:32:05;2.88;;;2.03;;
48621;SDS011;34421;48.944;9.460;2022-12-07T10:37:17;4.15;;;1.98;;
48621;SDS011;34421;48.944;9.460;2022-12-07T10:39:45;6.00;;;3.35;;
48621;SDS011;34421;48.944;9.460;2022-12-07T10:44:49;8.07;;;4.30;;
48621;SDS011;34421;48.944;9.460;2022-12-07T10:50:17;4.50;;;2.60;;
48621;SDS011;34421;48.944;9.460;2022-12-07T10:53:17;5.65;;;2.47;;
48621;SDS011;34421;48.944;9.460;2022-12-07T11:15:01;3.92;;;1.70;;
48621;SDS011;34421;48.944;9.460;2022-12-07T11:23:11;3.85;;;1.70;;
48621;SDS011;34421;48.944;9.460;2022-12-07T11:25:53;2.67;;;1.40;;
48621;SDS011;34421;48.944;9.460;2022-12-07T11:31:35;3.92;;;1.80;;
48621;SDS011;34421;48.944;9.460;2022-12-07T11:34:54;3.75;;;2.28;;
48621;SDS011;34421;48.944;9.460;2022-12-07T11:37:01;3.40;;;1.60;;
48621;SDS011;34421;48.944;9.460;2022-12-07T11:39:39;4.18;;;1.63;;
48621;SDS011;34421;48.944;9.460;2022-12-07T11:42:13;6.13;;;3.30;;
48621;SDS011;34421;48.944;9.460;2022-12-07T11:50:21;3.28;;;1.63;;
48621;SDS011;34421;48.944;9.460;2022-12-07T11:52:53;4.20;;;1.73;;
48621;SDS011;34421;48.944;9.460;2022-12-07T12:03:48;6.50;;;2.42;;
48621;SDS011;34421;48.944;9.460;2022-12-07T12:06:17;5.10;;;2.45;;
48621;SDS011;34421;48.944;9.460;2022-12-07T12:14:53;2.45;;;1.50;;
48621;SDS011;34421;48.944;9.460;2022-12-07T12:17:47;3.35;;;1.70;;
48621;SDS011;34421;48.944;9.460;2022-12-07T12:20:49;4.38;;;2.45;;
48621;SDS011;34421;48.944;9.460;2022-12-07T12:26:01;5.63;;;2.35;;
48621;SDS011;34421;48.944;9.460;2022-12-07T12:28:30;5.25;;;2.30;;
48621;SDS011;34421;48.944;9.460;2022-12-07T12:31:15;5.25;;;2.60;;
48621;SDS011;34421;48.944;9.460;2022-12-07T12:36:28;4.88;;;2.50;;
48621;SDS011;34421;48.944;9.460;2022-12-07T12:39:15;5.72;;;2.67;;
48621;SDS011;34421;48.944;9.460;2022-12-07T12:49:36;4.78;;;2.50;;
48621;SDS011;34421;48.944;9.460;2022-12-07T12:54:41;3.67;;;2.65;;
48621;SDS011;34421;48.944;9.460;2022-12-07T12:57:26;4.80;;;2.97;;
48621;SDS011;34421;48.944;9.460;2022-12-07T13:02:34;6.03;;;2.83;;
48621;SDS011;34421;48.944;9.460;2022-12-07T13:12:58;8.75;;;4.38;;
48621;SDS011;34421;48.944;9.460;2022-12-07T13:18:00;9.80;;;4.25;;
48621;SDS011;34421;48.944;9.460;2022-12-07T13:20:50;4.47;;;2.50;;
48621;SDS011;34421;48.944;9.460;2022-12-07T13:23:19;6.97;;;3.67;;
48621;SDS011;34421;48.944;9.460;2022-12-07T13:28:32;5.03;;;2.97;;
48621;SDS011;34421;48.944;9.460;2022-12-07T13:31:22;7.35;;;2.50;;
48621;SDS011;34421;48.944;9.460;2022-12-07T13:39:49;5.32;;;2.45;;
48621;SDS011;34421;48.944;9.460;2022-12-07T13:44:44;5.28;;;3.00;;
48621;SDS011;34421;48.944;9.460;2022-12-07T13:49:55;5.60;;;2.17;;
48621;SDS011;34421;48.944;9.460;2022-12-07T13:52:28;4.47;;;2.28;;
48621;SDS011;34421;48.944;9.460;2022-12-07T13:57:30;4.85;;;2.65;;
48621;SDS011;34421;48.944;9.460;2022-12-07T14:00:02;4.60;;;2.25;;
48621;SDS011;34421;48.944;9.460;2022-12-07T14:02:33;5.15;;;2.42;;
48621;SDS011;34421;48.944;9.460;2022-12-07T14:07:47;5.15;;;2.88;;
48621;SDS011;34421;48.944;9.460;2022-12-07T14:10:41;4.57;;;2.45;;
48621;SDS011;34421;48.944;9.460;2022-12-07T14:15:53;6.40;;;2.40;;
48621;SDS011;34421;48.944;9.460;2022-12-07T14:18:29;5.70;;;2.38;;
48621;SDS011;34421;48.944;9.460;2022-12-07T14:23:35;6.00;;;2.70;;
48621;SDS011;34421;48.944;9.460;2022-12-07T14:26:20;7.35;;;2.92;;
48621;SDS011;34421;48.944;9.460;2022-12-07T14:28:46;5.32;;;2.22;;
48621;SDS011;34421;48.944;9.460;2022-12-07T14:31:13;4.35;;;2.50;;
48621;SDS011;34421;48.944;9.460;2022-12-07T14:33:40;4.88;;;2.80;;
48621;SDS011;34421;48.944;9.460;2022-12-07T14:36:08;4.75;;;2.50;;
48621;SDS011;34421;48.944;9.460;2022-12-07T14:38:34;5.93;;;3.00;;
48621;SDS011;34421;48.944;9.460;2022-12-07T14:41:00;7.00;;;2.90;;
48621;SDS011;34421;48.944;9.460;2022-12-07T14:43:43;4.78;;;2.90;;
48621;SDS011;34421;48.944;9.460;2022-12-07T14:46:09;5.05;;;2.92;;
48621;SDS011;34421;48.944;9.460;2022-12-07T14:48:34;5.10;;;2.70;;
48621;SDS011;34421;48.944;9.460;2022-12-07T14:50:59;5.05;;;2.80;;
48621;SDS011;34421;48.944;9.460;2022-12-07T14:53:28;5.75;;;2.70;;
48621;SDS011;34421;48.944;9.460;2022-12-07T14:55:58;3.92;;;2.45;;
48621;SDS011;34421;48.944;9.460;2022-12-07T14:58:23;7.65;;;3.92;;
48621;SDS011;34421;48.944;9.460;2022-12-07T15:00:49;5.00;;;2.70;;
48621;SDS011;34421;48.944;9.460;2022-12-07T15:03:14;6.90;;;3.33;;
48621;SDS011;34421;48.944;9.460;2022-12-07T15:05:39;6.88;;;3.85;;
48621;SDS011;34421;48.944;9.460;2022-12-07T15:08:06;6.40;;;3.42;;
48621;SDS011;34421;48.944;9.460;2022-12-07T15:10:33;6.82;;;3.67;;
48621;SDS011;34421;48.944;9.460;2022-12-07T15:12:59;6.38;;;3.63;;
48621;SDS011;34421;48.944;9.460;2022-12-07T15:15:44;6.68;;;3.25;;
48621;SDS011;34421;48.944;9.460;2022-12-07T15:18:10;6.82;;;3.83;;
48621;SDS011;34421;48.944;9.460;2022-12-07T15:20:35;7.10;;;3.67;;
48621;SDS011;34421;48.944;9.460;2022-12-07T15:23:01;7.45;;;4.25;;
48621;SDS011;34421;48.944;9.460;2022-12-07T15:25:26;8.05;;;3.88;;
48621;SDS011;34421;48.944;9.460;2022-12-07T15:27:51;7.55;;;4.13;;
48621;SDS011;34421;48.944;9.460;2022-12-07T15:30:17;9.77;;;5.60;;
48621;SDS011;34421;48.944;9.460;2022-12-07T15:32:42;15.63;;;8.30;;
48621;SDS011;34421;48.944;9.460;2022-12-07T15:35:08;12.52;;;6.43;;
48621;SDS011;34421;48.944;9.460;2022-12-07T15:37:33;6.97;;;4.07;;
48621;SDS011;34421;48.944;9.460;2022-12-07T15:39:58;8.13;;;5.07;;
48621;SDS011;34421;48.944;9.460;2022-12-07T15:42:24;6.57;;;4.22;;
48621;SDS011;34421;48.944;9.460;2022-12-07T15:44:49;8.13;;;5.00;;
48621;SDS011;34421;48.944;9.460;2022-12-07T15:47:30;6.65;;;3.40;;
48621;SDS011;34421;48.944;9.460;2022-12-07T15:50:01;7.03;;;3.65;;
48621;SDS011;34421;48.944;9.460;2022-12-07T15:52:28;6.97;;;3.05;;
48621;SDS011;34421;48.944;9.460;2022-12-07T15:54:53;4.95;;;2.92;;
48621;SDS011;34421;48.944;9.460;2022-12-07T15:57:18;5.68;;;3.08;;
48621;SDS011;34421;48.944;9.460;2022-12-07T15:59:44;5.72;;;2.90;;
48621;SDS011;34421;48.944;9.460;2022-12-07T16:02:09;5.03;;;2.40;;
48621;SDS011;34421;48.944;9.460;2022-12-07T16:04:35;6.85;;;3.17;;
48621;SDS011;34421;48.944;9.460;2022-12-07T16:07:01;6.65;;;3.60;;
48621;SDS011;34421;48.944;9.460;2022-12-07T16:09:26;9.15;;;4.68;;
48621;SDS011;34421;48.944;9.460;2022-12-07T16:11:52;6.53;;;3.08;;
48621;SDS011;34421;48.944;9.460;2022-12-07T16:14:17;8.10;;;5.07;;
48621;SDS011;34421;48.944;9.460;2022-12-07T16:16:42;9.75;;;5.30;;
48621;SDS011;34421;48.944;9.460;2022-12-07T16:19:08;8.52;;;4.53;;
48621;SDS011;34421;48.944;9.460;2022-12-07T16:21:34;9.57;;;6.05;;
48621;SDS011;34421;48.944;9.460;2022-12-07T16:24:00;8.13;;;4.22;;
48621;SDS011;34421;48.944;9.460;2022-12-07T16:26:26;8.88;;;4.15;;
48621;SDS011;34421;48.944;9.460;2022-12-07T16:28:52;10.60;;;5.22;;
48621;SDS011;34421;48.944;9.460;2022-12-07T16:31:19;8.43;;;5.28;;
48621;SDS011;34421;48.944;9.460;2022-12-07T16:33:46;9.30;;;4.88;;
48621;SDS011;34421;48.944;9.460;2022-12-07T16:36:12;10.60;;;5.22;;
48621;SDS011;34421;48.944;9.460;2022-12-07T16:38:40;11.48;;;5.60;;
48621;SDS011;34421;48.944;9.460;2022-12-07T16:41:06;9.30;;;4.95;;
48621;SDS011;34421;48.944;9.460;2022-12-07T16:43:32;8.60;;;4.20;;
48621;SDS011;34421;48.944;9.460;2022-12-07T16:45:58;10.60;;;5.82;;
48621;SDS011;34421;48.944;9.460;2022-12-07T16:48:23;11.80;;;6.72;;
48621;SDS011;34421;48.944;9.460;2022-12-07T16:50:49;7.18;;;3.95;;
48621;SDS011;34421;48.944;9.460;2022-12-07T16:53:14;12.07;;;8.00;;
48621;SDS011;34421;48.944;9.460;2022-12-07T16:55:41;11.98;;;7.60;;
48621;SDS011;34421;48.944;9.460;2022-12-07T16:58:08;14.60;;;6.30;;
48621;SDS011;34421;48.944;9.460;2022-12-07T17:00:34;9.02;;;5.32;;
48621;SDS011;34421;48.944;9.460;2022-12-07T17:02:59;7.97;;;4.80;;
48621;SDS011;34421;48.944;9.460;2022-12-07T17:05:25;7.25;;;3.72;;
48621;SDS011;34421;48.944;9.460;2022-12-07T17:07:55;7.45;;;4.15;;
48621;SDS011;34421;48.944;9.460;2022-12-07T17:10:21;7.90;;;4.57;;
48621;SDS011;34421;48.944;9.460;2022-12-07T17:12:48;8.48;;;4.53;;
48621;SDS011;34421;48.944;9.460;2022-12-07T17:15:13;9.70;;;5.50;;
48621;SDS011;34421;48.944;9.460;2022-12-07T17:17:42;8.65;;;4.20;;
48621;SDS011;34421;48.944;9.460;2022-12-07T17:20:10;7.22;;;4.55;;
48621;SDS011;34421;48.944;9.460;2022-12-07T17:22:37;8.23;;;5.05;;
48621;SDS011;34421;48.944;9.460;2022-12-07T17:25:03;8.50;;;4.00;;
48621;SDS011;34421;48.944;9.460;2022-12-07T17:27:29;10.57;;;6.78;;
48621;SDS011;34421;48.944;9.460;2022-12-07T17:29:55;11.55;;;5.10;;
48621;SDS011;34421;48.944;9.460;2022-12-07T17:32:20;11.15;;;6.63;;
48621;SDS011;34421;48.944;9.460;2022-12-07T17:34:46;12.05;;;4.88;;
48621;SDS011;34421;48.944;9.460;2022-12-07T17:37:11;8.70;;;4.43;;
48621;SDS011;34421;48.944;9.460;2022-12-07T17:39:37;10.13;;;5.50;;